sensor_id;sensor_type;location;lat;lon;timestamp;P1;durP1;ratioP1;P2;durP2;ratioP2
12214;SDS011;6170;42.206;24.142;2022-10-17T00:01:43;10.18;;;6.35;;
12214;SDS011;6170;42.206;24.142;2022-10-17T00:04:10;13.13;;;6.63;;
12214;SDS011;6170;42.206;24.142;2022-10-17T00:06:38;25.63;;;7.93;;
12214;SDS011;6170;42.206;24.142;2022-10-17T00:09:05;10.70;;;6.53;;
12214;SDS011;6170;42.206;24.142;2022-10-17T00:11:35;17.08;;;7.65;;
12214;SDS011;6170;42.206;24.142;2022-10-17T00:14:02;13.82;;;7.13;;
12214;SDS011;6170;42.206;24.142;2022-10-17T00:16:30;12.95;;;7.40;;
12214;SDS011;6170;42.206;24.142;2022-10-17T00:18:58;18.27;;;7.80;;
12214;SDS011;6170;42.206;24.142;2022-10-17T00:21:26;10.88;;;7.28;;
12214;SDS011;6170;42.206;24.142;2022-10-17T00:23:53;12.48;;;7.22;;
12214;SDS011;6170;42.206;24.142;2022-10-17T00:26:21;13.40;;;7.50;;
12214;SDS011;6170;42.206;24.142;2022-10-17T00:28:50;11.60;;;7.32;;
12214;SDS011;6170;42.206;24.142;2022-10-17T00:31:18;11.73;;;6.88;;
12214;SDS011;6170;42.206;24.142;2022-10-17T00:33:46;12.07;;;7.45;;
12214;SDS011;6170;42.206;24.142;2022-10-17T00:36:15;11.25;;;7.50;;
12214;SDS011;6170;42.206;24.142;2022-10-17T00:38:44;13.45;;;7.95;;
12214;SDS011;6170;42.206;24.142;2022-10-17T00:41:14;11.73;;;7.22;;
12214;SDS011;6170;42.206;24.142;2022-10-17T00:43:52;13.45;;;7.78;;
12214;SDS011;6170;42.206;24.142;2022-10-17T00:46:24;10.88;;;6.82;;
12214;SDS011;6170;42.206;24.142;2022-10-17T00:48:52;12.88;;;7.88;;
12214;SDS011;6170;42.206;24.142;2022-10-17T00:51:23;12.80;;;8.02;;
12214;SDS011;6170;42.206;24.142;2022-10-17T00:53:53;12.13;;;7.35;;
12214;SDS011;6170;42.206;24.142;2022-10-17T00:56:21;10.75;;;6.82;;
12214;SDS011;6170;42.206;24.142;2022-10-17T00:58:48;10.30;;;6.80;;
12214;SDS011;6170;42.206;24.142;2022-10-17T01:01:17;9.30;;;6.28;;
12214;SDS011;6170;42.206;24.142;2022-10-17T01:03:44;11.55;;;6.20;;
12214;SDS011;6170;42.206;24.142;2022-10-17T01:06:11;8.32;;;6.05;;
12214;SDS011;6170;42.206;24.142;2022-10-17T01:08:37;7.80;;;5.82;;
12214;SDS011;6170;42.206;24.142;2022-10-17T01:11:07;10.30;;;6.20;;
12214;SDS011;6170;42.206;24.142;2022-10-17T01:13:40;8.07;;;5.28;;
12214;SDS011;6170;42.206;24.142;2022-10-17T01:18:47;9.75;;;6.15;;
12214;SDS011;6170;42.206;24.142;2022-10-17T01:24:17;11.07;;;6.00;;
12214;SDS011;6170;42.206;24.142;2022-10-17T01:27:12;8.73;;;6.07;;
12214;SDS011;6170;42.206;24.142;2022-10-17T01:30:08;9.88;;;6.05;;
12214;SDS011;6170;42.206;24.142;2022-10-17T01:32:57;9.52;;;5.93;;
12214;SDS011;6170;42.206;24.142;2022-10-17T01:35:31;8.43;;;6.28;;
12214;SDS011;6170;42.206;24.142;2022-10-17T01:38:05;10.82;;;6.70;;
12214;SDS011;6170;42.206;24.142;2022-10-17T01:40:38;14.00;;;6.43;;
12214;SDS011;6170;42.206;24.142;2022-10-17T01:43:12;10.77;;;5.75;;
12214;SDS011;6170;42.206;24.142;2022-10-17T01:45:44;9.25;;;6.43;;
12214;SDS011;6170;42.206;24.142;2022-10-17T01:48:17;12.85;;;6.47;;
12214;SDS011;6170;42.206;24.142;2022-10-17T01:50:49;10.63;;;6.65;;
12214;SDS011;6170;42.206;24.142;2022-10-17T01:53:20;9.68;;;6.10;;
12214;SDS011;6170;42.206;24.142;2022-10-17T01:55:50;10.13;;;6.03;;
12214;SDS011;6170;42.206;24.142;2022-10-17T01:58:22;10.10;;;6.68;;
12214;SDS011;6170;42.206;24.142;2022-10-17T02:00:54;10.02;;;6.93;;
12214;SDS011;6170;42.206;24.142;2022-10-17T02:03:24;10.55;;;6.40;;
12214;SDS011;6170;42.206;24.142;2022-10-17T02:05:53;10.38;;;6.68;;
12214;SDS011;6170;42.206;24.142;2022-10-17T02:08:24;13.13;;;6.28;;
12214;SDS011;6170;42.206;24.142;2022-10-17T02:10:53;9.63;;;5.97;;
12214;SDS011;6170;42.206;24.142;2022-10-17T02:13:26;9.40;;;6.60;;
12214;SDS011;6170;42.206;24.142;2022-10-17T02:16:07;10.50;;;6.60;;
12214;SDS011;6170;42.206;24.142;2022-10-17T02:21:35;19.20;;;9.25;;
12214;SDS011;6170;42.206;24.142;2022-10-17T02:24:12;14.50;;;7.18;;
12214;SDS011;6170;42.206;24.142;2022-10-17T02:26:46;7.97;;;6.10;;
12214;SDS011;6170;42.206;24.142;2022-10-17T02:29:19;10.07;;;6.00;;
12214;SDS011;6170;42.206;24.142;2022-10-17T02:31:50;11.18;;;6.20;;
12214;SDS011;6170;42.206;24.142;2022-10-17T02:34:23;15.85;;;6.72;;
12214;SDS011;6170;42.206;24.142;2022-10-17T02:36:55;8.23;;;5.95;;
12214;SDS011;6170;42.206;24.142;2022-10-17T02:39:25;9.90;;;6.15;;
12214;SDS011;6170;42.206;24.142;2022-10-17T02:41:55;11.32;;;6.70;;
12214;SDS011;6170;42.206;24.142;2022-10-17T02:44:25;8.82;;;6.18;;
12214;SDS011;6170;42.206;24.142;2022-10-17T02:46:58;12.48;;;6.38;;
12214;SDS011;6170;42.206;24.142;2022-10-17T02:49:35;10.85;;;6.75;;
12214;SDS011;6170;42.206;24.142;2022-10-17T02:52:06;11.18;;;7.25;;
12214;SDS011;6170;42.206;24.142;2022-10-17T02:54:38;14.70;;;8.40;;
12214;SDS011;6170;42.206;24.142;2022-10-17T02:57:09;9.95;;;6.40;;
12214;SDS011;6170;42.206;24.142;2022-10-17T02:59:39;14.27;;;7.13;;
12214;SDS011;6170;42.206;24.142;2022-10-17T03:02:09;13.60;;;6.85;;
12214;SDS011;6170;42.206;24.142;2022-10-17T03:04:38;10.05;;;6.93;;
12214;SDS011;6170;42.206;24.142;2022-10-17T03:07:08;12.30;;;7.32;;
12214;SDS011;6170;42.206;24.142;2022-10-17T03:09:35;10.88;;;7.20;;
12214;SDS011;6170;42.206;24.142;2022-10-17T03:12:02;15.88;;;7.90;;
12214;SDS011;6170;42.206;24.142;2022-10-17T03:14:29;12.18;;;7.75;;
12214;SDS011;6170;42.206;24.142;2022-10-17T03:16:56;13.75;;;8.02;;
12214;SDS011;6170;42.206;24.142;2022-10-17T03:19:23;11.10;;;7.03;;
12214;SDS011;6170;42.206;24.142;2022-10-17T03:21:51;9.90;;;6.82;;
12214;SDS011;6170;42.206;24.142;2022-10-17T03:24:18;9.93;;;6.97;;
12214;SDS011;6170;42.206;24.142;2022-10-17T03:26:45;40.28;;;14.50;;
12214;SDS011;6170;42.206;24.142;2022-10-17T03:29:12;21.42;;;11.00;;
12214;SDS011;6170;42.206;24.142;2022-10-17T03:31:39;15.82;;;8.65;;
12214;SDS011;6170;42.206;24.142;2022-10-17T03:34:06;14.85;;;8.55;;
12214;SDS011;6170;42.206;24.142;2022-10-17T03:36:33;16.55;;;8.77;;
12214;SDS011;6170;42.206;24.142;2022-10-17T03:39:01;15.30;;;8.55;;
12214;SDS011;6170;42.206;24.142;2022-10-17T03:41:28;12.27;;;7.50;;
12214;SDS011;6170;42.206;24.142;2022-10-17T03:43:55;12.40;;;8.18;;
12214;SDS011;6170;42.206;24.142;2022-10-17T03:46:22;11.77;;;7.25;;
12214;SDS011;6170;42.206;24.142;2022-10-17T03:48:49;11.57;;;7.68;;
12214;SDS011;6170;42.206;24.142;2022-10-17T03:51:16;13.20;;;8.02;;
12214;SDS011;6170;42.206;24.142;2022-10-17T03:53:43;12.27;;;8.32;;
12214;SDS011;6170;42.206;24.142;2022-10-17T03:56:13;13.23;;;8.25;;
12214;SDS011;6170;42.206;24.142;2022-10-17T03:58:41;12.15;;;7.47;;
12214;SDS011;6170;42.206;24.142;2022-10-17T04:01:08;13.60;;;7.40;;
12214;SDS011;6170;42.206;24.142;2022-10-17T04:03:37;14.65;;;7.93;;
12214;SDS011;6170;42.206;24.142;2022-10-17T04:06:05;12.35;;;7.63;;
12214;SDS011;6170;42.206;24.142;2022-10-17T04:08:32;15.35;;;7.80;;
12214;SDS011;6170;42.206;24.142;2022-10-17T04:10:59;14.05;;;7.78;;
12214;SDS011;6170;42.206;24.142;2022-10-17T04:13:29;14.02;;;8.30;;
12214;SDS011;6170;42.206;24.142;2022-10-17T04:15:56;14.05;;;8.13;;
12214;SDS011;6170;42.206;24.142;2022-10-17T04:18:24;11.32;;;7.57;;
12214;SDS011;6170;42.206;24.142;2022-10-17T04:20:51;13.20;;;7.95;;
12214;SDS011;6170;42.206;24.142;2022-10-17T04:23:18;12.00;;;7.68;;
12214;SDS011;6170;42.206;24.142;2022-10-17T04:25:45;13.25;;;8.10;;
12214;SDS011;6170;42.206;24.142;2022-10-17T04:28:12;13.70;;;7.60;;
12214;SDS011;6170;42.206;24.142;2022-10-17T04:30:41;12.90;;;8.10;;
12214;SDS011;6170;42.206;24.142;2022-10-17T04:33:07;15.32;;;7.57;;
12214;SDS011;6170;42.206;24.142;2022-10-17T04:35:34;17.02;;;8.32;;
12214;SDS011;6170;42.206;24.142;2022-10-17T04:38:01;17.27;;;8.18;;
12214;SDS011;6170;42.206;24.142;2022-10-17T04:40:28;15.98;;;9.55;;
12214;SDS011;6170;42.206;24.142;2022-10-17T04:42:55;19.17;;;9.18;;
12214;SDS011;6170;42.206;24.142;2022-10-17T04:45:22;14.88;;;8.38;;
12214;SDS011;6170;42.206;24.142;2022-10-17T04:47:50;15.60;;;9.45;;
12214;SDS011;6170;42.206;24.142;2022-10-17T04:50:17;16.73;;;8.85;;
12214;SDS011;6170;42.206;24.142;2022-10-17T04:52:44;16.83;;;9.80;;
12214;SDS011;6170;42.206;24.142;2022-10-17T04:55:11;15.70;;;8.90;;
12214;SDS011;6170;42.206;24.142;2022-10-17T04:57:38;14.60;;;7.97;;
12214;SDS011;6170;42.206;24.142;2022-10-17T05:00:05;13.40;;;7.70;;
12214;SDS011;6170;42.206;24.142;2022-10-17T05:02:33;10.93;;;7.13;;
12214;SDS011;6170;42.206;24.142;2022-10-17T05:05:01;13.07;;;7.22;;
12214;SDS011;6170;42.206;24.142;2022-10-17T05:07:28;12.13;;;6.88;;
12214;SDS011;6170;42.206;24.142;2022-10-17T05:09:55;12.50;;;7.63;;
12214;SDS011;6170;42.206;24.142;2022-10-17T05:12:22;18.52;;;8.23;;
12214;SDS011;6170;42.206;24.142;2022-10-17T05:14:49;15.13;;;8.30;;
12214;SDS011;6170;42.206;24.142;2022-10-17T05:17:16;19.38;;;9.80;;
12214;SDS011;6170;42.206;24.142;2022-10-17T05:19:43;17.88;;;8.73;;
12214;SDS011;6170;42.206;24.142;2022-10-17T05:22:11;14.57;;;7.90;;
12214;SDS011;6170;42.206;24.142;2022-10-17T05:24:38;11.40;;;7.00;;
12214;SDS011;6170;42.206;24.142;2022-10-17T05:27:05;14.43;;;7.53;;
12214;SDS011;6170;42.206;24.142;2022-10-17T05:29:33;14.18;;;9.15;;
12214;SDS011;6170;42.206;24.142;2022-10-17T05:32:00;10.27;;;7.30;;
12214;SDS011;6170;42.206;24.142;2022-10-17T05:34:27;15.38;;;8.68;;
12214;SDS011;6170;42.206;24.142;2022-10-17T05:36:54;16.48;;;8.82;;
12214;SDS011;6170;42.206;24.142;2022-10-17T05:39:22;17.42;;;9.55;;
12214;SDS011;6170;42.206;24.142;2022-10-17T05:41:49;17.33;;;9.50;;
12214;SDS011;6170;42.206;24.142;2022-10-17T05:44:16;25.60;;;11.77;;
12214;SDS011;6170;42.206;24.142;2022-10-17T05:46:43;27.88;;;11.52;;
12214;SDS011;6170;42.206;24.142;2022-10-17T05:49:10;18.92;;;10.48;;
12214;SDS011;6170;42.206;24.142;2022-10-17T05:51:37;15.20;;;10.05;;
12214;SDS011;6170;42.206;24.142;2022-10-17T05:54:05;17.23;;;8.60;;
12214;SDS011;6170;42.206;24.142;2022-10-17T05:56:34;18.17;;;9.90;;
12214;SDS011;6170;42.206;24.142;2022-10-17T05:59:01;17.33;;;9.00;;
12214;SDS011;6170;42.206;24.142;2022-10-17T06:01:28;16.05;;;9.02;;
12214;SDS011;6170;42.206;24.142;2022-10-17T06:03:55;19.98;;;8.57;;
12214;SDS011;6170;42.206;24.142;2022-10-17T06:06:22;13.45;;;8.27;;
12214;SDS011;6170;42.206;24.142;2022-10-17T06:08:49;11.13;;;7.25;;
12214;SDS011;6170;42.206;24.142;2022-10-17T06:11:15;12.45;;;8.52;;
12214;SDS011;6170;42.206;24.142;2022-10-17T06:13:44;11.57;;;8.15;;
12214;SDS011;6170;42.206;24.142;2022-10-17T06:16:11;13.40;;;7.43;;
12214;SDS011;6170;42.206;24.142;2022-10-17T06:18:38;13.50;;;7.20;;
12214;SDS011;6170;42.206;24.142;2022-10-17T06:21:06;13.77;;;7.20;;
12214;SDS011;6170;42.206;24.142;2022-10-17T06:23:34;12.52;;;7.00;;
12214;SDS011;6170;42.206;24.142;2022-10-17T06:26:02;19.92;;;9.48;;
12214;SDS011;6170;42.206;24.142;2022-10-17T06:28:30;11.75;;;7.10;;
12214;SDS011;6170;42.206;24.142;2022-10-17T06:31:02;10.60;;;7.40;;
12214;SDS011;6170;42.206;24.142;2022-10-17T06:33:30;20.23;;;7.97;;
12214;SDS011;6170;42.206;24.142;2022-10-17T06:35:57;16.15;;;8.10;;
12214;SDS011;6170;42.206;24.142;2022-10-17T06:38:24;12.60;;;8.10;;
12214;SDS011;6170;42.206;24.142;2022-10-17T06:40:51;16.00;;;7.45;;
12214;SDS011;6170;42.206;24.142;2022-10-17T06:43:18;13.40;;;7.30;;
12214;SDS011;6170;42.206;24.142;2022-10-17T06:45:45;9.77;;;6.32;;
12214;SDS011;6170;42.206;24.142;2022-10-17T06:48:14;13.82;;;7.10;;
12214;SDS011;6170;42.206;24.142;2022-10-17T06:50:41;17.10;;;6.75;;
12214;SDS011;6170;42.206;24.142;2022-10-17T06:53:08;16.73;;;7.20;;
12214;SDS011;6170;42.206;24.142;2022-10-17T06:55:35;8.65;;;6.70;;
12214;SDS011;6170;42.206;24.142;2022-10-17T06:58:02;11.73;;;6.93;;
12214;SDS011;6170;42.206;24.142;2022-10-17T07:00:29;10.50;;;6.55;;
12214;SDS011;6170;42.206;24.142;2022-10-17T07:02:55;13.85;;;7.10;;
12214;SDS011;6170;42.206;24.142;2022-10-17T07:05:24;9.05;;;7.00;;
12214;SDS011;6170;42.206;24.142;2022-10-17T07:07:51;12.15;;;7.30;;
12214;SDS011;6170;42.206;24.142;2022-10-17T07:10:17;12.25;;;6.90;;
12214;SDS011;6170;42.206;24.142;2022-10-17T07:12:44;9.00;;;6.88;;
12214;SDS011;6170;42.206;24.142;2022-10-17T07:15:11;13.75;;;7.35;;
12214;SDS011;6170;42.206;24.142;2022-10-17T07:17:38;16.60;;;6.85;;
12214;SDS011;6170;42.206;24.142;2022-10-17T07:20:05;11.57;;;6.78;;
12214;SDS011;6170;42.206;24.142;2022-10-17T07:22:34;13.45;;;7.68;;
12214;SDS011;6170;42.206;24.142;2022-10-17T07:25:01;12.88;;;7.18;;
12214;SDS011;6170;42.206;24.142;2022-10-17T07:27:28;10.73;;;6.72;;
12214;SDS011;6170;42.206;24.142;2022-10-17T07:29:55;13.52;;;7.55;;
12214;SDS011;6170;42.206;24.142;2022-10-17T07:32:22;15.38;;;7.05;;
12214;SDS011;6170;42.206;24.142;2022-10-17T07:34:49;16.23;;;7.15;;
12214;SDS011;6170;42.206;24.142;2022-10-17T07:37:16;16.83;;;6.60;;
12214;SDS011;6170;42.206;24.142;2022-10-17T07:39:44;11.10;;;7.03;;
12214;SDS011;6170;42.206;24.142;2022-10-17T07:42:11;10.70;;;6.43;;
12214;SDS011;6170;42.206;24.142;2022-10-17T07:44:38;8.45;;;6.35;;
12214;SDS011;6170;42.206;24.142;2022-10-17T07:47:05;7.43;;;6.10;;
12214;SDS011;6170;42.206;24.142;2022-10-17T07:49:32;9.70;;;6.40;;
12214;SDS011;6170;42.206;24.142;2022-10-17T07:51:59;10.55;;;6.70;;
12214;SDS011;6170;42.206;24.142;2022-10-17T07:54:26;8.48;;;5.90;;
12214;SDS011;6170;42.206;24.142;2022-10-17T07:56:54;8.80;;;6.30;;
12214;SDS011;6170;42.206;24.142;2022-10-17T07:59:21;9.15;;;6.47;;
12214;SDS011;6170;42.206;24.142;2022-10-17T08:01:48;9.23;;;5.97;;
12214;SDS011;6170;42.206;24.142;2022-10-17T08:04:15;8.25;;;6.00;;
12214;SDS011;6170;42.206;24.142;2022-10-17T08:06:42;8.82;;;6.47;;
12214;SDS011;6170;42.206;24.142;2022-10-17T08:09:09;10.70;;;6.40;;
12214;SDS011;6170;42.206;24.142;2022-10-17T08:11:36;12.07;;;6.10;;
12214;SDS011;6170;42.206;24.142;2022-10-17T08:14:04;8.23;;;6.60;;
12214;SDS011;6170;42.206;24.142;2022-10-17T08:16:32;9.32;;;6.00;;
12214;SDS011;6170;42.206;24.142;2022-10-17T08:18:58;8.38;;;6.07;;
12214;SDS011;6170;42.206;24.142;2022-10-17T08:21:26;11.52;;;6.18;;
12214;SDS011;6170;42.206;24.142;2022-10-17T08:23:53;8.52;;;6.15;;
12214;SDS011;6170;42.206;24.142;2022-10-17T08:26:20;10.65;;;6.03;;
12214;SDS011;6170;42.206;24.142;2022-10-17T08:28:47;8.20;;;5.68;;
12214;SDS011;6170;42.206;24.142;2022-10-17T08:31:17;8.02;;;6.20;;
12214;SDS011;6170;42.206;24.142;2022-10-17T08:33:45;9.27;;;6.35;;
12214;SDS011;6170;42.206;24.142;2022-10-17T08:36:13;8.45;;;6.25;;
12214;SDS011;6170;42.206;24.142;2022-10-17T08:38:42;12.48;;;6.70;;
12214;SDS011;6170;42.206;24.142;2022-10-17T08:41:12;15.35;;;6.70;;
12214;SDS011;6170;42.206;24.142;2022-10-17T08:46:28;8.63;;;6.55;;
12214;SDS011;6170;42.206;24.142;2022-10-17T08:49:01;11.10;;;6.18;;
12214;SDS011;6170;42.206;24.142;2022-10-17T08:51:32;11.70;;;6.57;;
12214;SDS011;6170;42.206;24.142;2022-10-17T08:54:04;9.77;;;5.85;;
12214;SDS011;6170;42.206;24.142;2022-10-17T08:56:37;13.25;;;6.25;;
12214;SDS011;6170;42.206;24.142;2022-10-17T08:59:09;12.63;;;6.85;;
12214;SDS011;6170;42.206;24.142;2022-10-17T09:01:40;8.68;;;6.75;;
12214;SDS011;6170;42.206;24.142;2022-10-17T09:04:33;11.95;;;6.18;;
12214;SDS011;6170;42.206;24.142;2022-10-17T09:07:11;7.40;;;5.72;;
12214;SDS011;6170;42.206;24.142;2022-10-17T09:09:47;9.38;;;5.82;;
12214;SDS011;6170;42.206;24.142;2022-10-17T09:12:22;12.38;;;6.10;;
12214;SDS011;6170;42.206;24.142;2022-10-17T09:14:57;8.23;;;5.65;;
12214;SDS011;6170;42.206;24.142;2022-10-17T09:17:46;8.85;;;5.82;;
12214;SDS011;6170;42.206;24.142;2022-10-17T09:20:19;7.90;;;5.88;;
12214;SDS011;6170;42.206;24.142;2022-10-17T09:22:51;8.65;;;5.60;;
12214;SDS011;6170;42.206;24.142;2022-10-17T09:25:22;10.95;;;6.32;;
12214;SDS011;6170;42.206;24.142;2022-10-17T09:27:51;14.10;;;6.18;;
12214;SDS011;6170;42.206;24.142;2022-10-17T09:30:32;11.68;;;6.55;;
12214;SDS011;6170;42.206;24.142;2022-10-17T09:33:09;8.82;;;7.00;;
12214;SDS011;6170;42.206;24.142;2022-10-17T09:35:38;13.77;;;6.25;;
12214;SDS011;6170;42.206;24.142;2022-10-17T09:38:10;9.18;;;6.22;;
12214;SDS011;6170;42.206;24.142;2022-10-17T09:40:41;11.75;;;6.35;;
12214;SDS011;6170;42.206;24.142;2022-10-17T09:43:10;13.45;;;6.40;;
12214;SDS011;6170;42.206;24.142;2022-10-17T09:45:43;9.25;;;5.90;;
12214;SDS011;6170;42.206;24.142;2022-10-17T09:48:17;9.75;;;6.00;;
12214;SDS011;6170;42.206;24.142;2022-10-17T09:50:50;9.88;;;5.85;;
12214;SDS011;6170;42.206;24.142;2022-10-17T09:53:20;8.73;;;5.88;;
12214;SDS011;6170;42.206;24.142;2022-10-17T09:55:51;9.95;;;6.10;;
12214;SDS011;6170;42.206;24.142;2022-10-17T09:58:21;8.45;;;5.55;;
12214;SDS011;6170;42.206;24.142;2022-10-17T10:00:48;8.65;;;5.38;;
12214;SDS011;6170;42.206;24.142;2022-10-17T10:03:17;13.80;;;5.57;;
12214;SDS011;6170;42.206;24.142;2022-10-17T10:06:00;10.75;;;5.63;;
12214;SDS011;6170;42.206;24.142;2022-10-17T10:08:29;9.27;;;5.95;;
12214;SDS011;6170;42.206;24.142;2022-10-17T10:10:59;8.70;;;5.95;;
12214;SDS011;6170;42.206;24.142;2022-10-17T10:13:29;8.07;;;5.85;;
12214;SDS011;6170;42.206;24.142;2022-10-17T10:16:12;9.32;;;6.22;;
12214;SDS011;6170;42.206;24.142;2022-10-17T10:18:46;9.77;;;6.47;;
12214;SDS011;6170;42.206;24.142;2022-10-17T10:21:15;9.10;;;6.07;;
12214;SDS011;6170;42.206;24.142;2022-10-17T10:23:44;8.18;;;6.03;;
12214;SDS011;6170;42.206;24.142;2022-10-17T10:26:28;8.18;;;5.82;;
12214;SDS011;6170;42.206;24.142;2022-10-17T10:29:00;9.10;;;5.93;;
12214;SDS011;6170;42.206;24.142;2022-10-17T10:31:31;9.15;;;5.13;;
12214;SDS011;6170;42.206;24.142;2022-10-17T10:34:10;8.05;;;5.97;;
12214;SDS011;6170;42.206;24.142;2022-10-17T10:36:49;8.63;;;5.28;;
12214;SDS011;6170;42.206;24.142;2022-10-17T10:39:28;9.80;;;5.20;;
12214;SDS011;6170;42.206;24.142;2022-10-17T10:41:59;7.78;;;5.82;;
12214;SDS011;6170;42.206;24.142;2022-10-17T10:44:27;10.55;;;5.72;;
12214;SDS011;6170;42.206;24.142;2022-10-17T10:49:52;9.32;;;5.93;;
12214;SDS011;6170;42.206;24.142;2022-10-17T10:52:33;7.80;;;5.63;;
12214;SDS011;6170;42.206;24.142;2022-10-17T10:55:13;9.25;;;4.95;;
12214;SDS011;6170;42.206;24.142;2022-10-17T10:57:45;9.15;;;5.20;;
12214;SDS011;6170;42.206;24.142;2022-10-17T11:00:15;8.02;;;5.28;;
12214;SDS011;6170;42.206;24.142;2022-10-17T11:02:48;8.85;;;5.60;;
12214;SDS011;6170;42.206;24.142;2022-10-17T11:05:26;6.90;;;5.00;;
12214;SDS011;6170;42.206;24.142;2022-10-17T11:08:04;6.03;;;4.97;;
12214;SDS011;6170;42.206;24.142;2022-10-17T11:10:38;8.88;;;5.28;;
12214;SDS011;6170;42.206;24.142;2022-10-17T11:13:10;9.13;;;5.00;;
12214;SDS011;6170;42.206;24.142;2022-10-17T11:15:41;11.23;;;5.57;;
12214;SDS011;6170;42.206;24.142;2022-10-17T11:18:15;7.47;;;5.45;;
12214;SDS011;6170;42.206;24.142;2022-10-17T11:20:51;8.30;;;4.95;;
12214;SDS011;6170;42.206;24.142;2022-10-17T11:23:23;9.07;;;4.15;;
12214;SDS011;6170;42.206;24.142;2022-10-17T11:25:56;6.32;;;4.32;;
12214;SDS011;6170;42.206;24.142;2022-10-17T11:28:28;7.28;;;5.07;;
12214;SDS011;6170;42.206;24.142;2022-10-17T11:30:56;6.50;;;4.60;;
12214;SDS011;6170;42.206;24.142;2022-10-17T11:33:28;9.63;;;4.70;;
12214;SDS011;6170;42.206;24.142;2022-10-17T11:38:41;8.18;;;5.13;;
12214;SDS011;6170;42.206;24.142;2022-10-17T11:41:18;9.90;;;5.13;;
12214;SDS011;6170;42.206;24.142;2022-10-17T11:43:51;7.80;;;4.70;;
12214;SDS011;6170;42.206;24.142;2022-10-17T11:46:22;7.30;;;4.28;;
12214;SDS011;6170;42.206;24.142;2022-10-17T11:48:55;9.77;;;3.70;;
12214;SDS011;6170;42.206;24.142;2022-10-17T11:51:33;6.55;;;3.30;;
12214;SDS011;6170;42.206;24.142;2022-10-17T11:54:09;5.00;;;3.67;;
12214;SDS011;6170;42.206;24.142;2022-10-17T11:56:41;5.57;;;3.10;;
12214;SDS011;6170;42.206;24.142;2022-10-17T11:59:19;4.88;;;3.78;;
12214;SDS011;6170;42.206;24.142;2022-10-17T12:02:08;5.90;;;3.05;;
12214;SDS011;6170;42.206;24.142;2022-10-17T12:04:39;6.55;;;3.97;;
12214;SDS011;6170;42.206;24.142;2022-10-17T12:07:21;5.13;;;3.55;;
12214;SDS011;6170;42.206;24.142;2022-10-17T12:09:56;6.22;;;3.67;;
12214;SDS011;6170;42.206;24.142;2022-10-17T12:12:28;9.82;;;4.05;;
12214;SDS011;6170;42.206;24.142;2022-10-17T12:15:25;6.85;;;3.78;;
12214;SDS011;6170;42.206;24.142;2022-10-17T12:17:53;14.02;;;4.07;;
12214;SDS011;6170;42.206;24.142;2022-10-17T12:20:26;6.68;;;4.25;;
12214;SDS011;6170;42.206;24.142;2022-10-17T12:23:18;9.23;;;3.80;;
12214;SDS011;6170;42.206;24.142;2022-10-17T12:25:49;7.13;;;3.15;;
12214;SDS011;6170;42.206;24.142;2022-10-17T12:28:20;4.68;;;2.92;;
12214;SDS011;6170;42.206;24.142;2022-10-17T12:30:56;25.60;;;4.03;;
12214;SDS011;6170;42.206;24.142;2022-10-17T12:51:25;4.47;;;2.80;;
12214;SDS011;6170;42.206;24.142;2022-10-17T12:53:55;5.05;;;3.00;;
12214;SDS011;6170;42.206;24.142;2022-10-17T12:56:30;4.75;;;2.85;;
12214;SDS011;6170;42.206;24.142;2022-10-17T12:59:06;5.15;;;3.53;;
12214;SDS011;6170;42.206;24.142;2022-10-17T13:01:37;4.97;;;3.33;;
12214;SDS011;6170;42.206;24.142;2022-10-17T13:04:08;3.42;;;2.80;;
12214;SDS011;6170;42.206;24.142;2022-10-17T13:06:38;6.05;;;3.17;;
12214;SDS011;6170;42.206;24.142;2022-10-17T13:09:17;3.95;;;3.00;;
12214;SDS011;6170;42.206;24.142;2022-10-17T13:11:49;7.65;;;3.33;;
12214;SDS011;6170;42.206;24.142;2022-10-17T13:14:19;5.85;;;3.20;;
12214;SDS011;6170;42.206;24.142;2022-10-17T13:16:51;4.85;;;3.40;;
12214;SDS011;6170;42.206;24.142;2022-10-17T13:19:19;9.02;;;3.25;;
12214;SDS011;6170;42.206;24.142;2022-10-17T13:21:51;4.40;;;2.90;;
12214;SDS011;6170;42.206;24.142;2022-10-17T13:24:21;8.60;;;3.38;;
12214;SDS011;6170;42.206;24.142;2022-10-17T13:26:49;4.47;;;3.00;;
12214;SDS011;6170;42.206;24.142;2022-10-17T13:29:15;11.15;;;2.90;;
12214;SDS011;6170;42.206;24.142;2022-10-17T13:31:49;8.05;;;2.85;;
12214;SDS011;6170;42.206;24.142;2022-10-17T13:34:19;5.55;;;2.83;;
12214;SDS011;6170;42.206;24.142;2022-10-17T13:36:47;5.28;;;2.55;;
12214;SDS011;6170;42.206;24.142;2022-10-17T13:39:17;9.90;;;3.20;;
12214;SDS011;6170;42.206;24.142;2022-10-17T13:41:45;15.75;;;3.20;;
12214;SDS011;6170;42.206;24.142;2022-10-17T13:44:13;3.65;;;2.47;;
12214;SDS011;6170;42.206;24.142;2022-10-17T13:46:42;6.30;;;2.35;;
12214;SDS011;6170;42.206;24.142;2022-10-17T13:49:14;5.43;;;2.80;;
12214;SDS011;6170;42.206;24.142;2022-10-17T13:51:45;5.53;;;2.42;;
12214;SDS011;6170;42.206;24.142;2022-10-17T13:54:31;8.10;;;2.28;;
12214;SDS011;6170;42.206;24.142;2022-10-17T13:57:01;7.53;;;2.28;;
12214;SDS011;6170;42.206;24.142;2022-10-17T13:59:30;6.72;;;2.58;;
12214;SDS011;6170;42.206;24.142;2022-10-17T14:02:02;4.70;;;2.15;;
12214;SDS011;6170;42.206;24.142;2022-10-17T14:04:32;3.90;;;2.13;;
12214;SDS011;6170;42.206;24.142;2022-10-17T14:06:58;6.32;;;2.42;;
12214;SDS011;6170;42.206;24.142;2022-10-17T14:09:26;3.55;;;2.55;;
12214;SDS011;6170;42.206;24.142;2022-10-17T14:11:56;4.85;;;1.88;;
12214;SDS011;6170;42.206;24.142;2022-10-17T14:14:25;2.97;;;2.00;;
12214;SDS011;6170;42.206;24.142;2022-10-17T14:16:53;6.18;;;2.15;;
12214;SDS011;6170;42.206;24.142;2022-10-17T14:19:22;5.35;;;2.30;;
12214;SDS011;6170;42.206;24.142;2022-10-17T14:21:53;2.58;;;1.98;;
12214;SDS011;6170;42.206;24.142;2022-10-17T14:24:25;5.13;;;2.10;;
12214;SDS011;6170;42.206;24.142;2022-10-17T14:29:23;3.08;;;2.28;;
12214;SDS011;6170;42.206;24.142;2022-10-17T14:31:56;3.40;;;2.50;;
12214;SDS011;6170;42.206;24.142;2022-10-17T14:34:29;4.68;;;2.40;;
12214;SDS011;6170;42.206;24.142;2022-10-17T14:37:00;4.15;;;2.80;;
12214;SDS011;6170;42.206;24.142;2022-10-17T14:39:27;3.22;;;2.30;;
12214;SDS011;6170;42.206;24.142;2022-10-17T14:41:54;6.05;;;2.20;;
12214;SDS011;6170;42.206;24.142;2022-10-17T14:44:23;4.82;;;2.38;;
12214;SDS011;6170;42.206;24.142;2022-10-17T14:46:53;3.92;;;2.10;;
12214;SDS011;6170;42.206;24.142;2022-10-17T14:49:26;3.78;;;2.05;;
12214;SDS011;6170;42.206;24.142;2022-10-17T14:52:24;4.43;;;2.20;;
12214;SDS011;6170;42.206;24.142;2022-10-17T14:54:55;4.85;;;1.92;;
12214;SDS011;6170;42.206;24.142;2022-10-17T14:57:26;4.65;;;2.40;;
12214;SDS011;6170;42.206;24.142;2022-10-17T14:59:55;5.43;;;2.03;;
12214;SDS011;6170;42.206;24.142;2022-10-17T15:02:22;4.40;;;2.38;;
12214;SDS011;6170;42.206;24.142;2022-10-17T15:04:50;5.85;;;2.30;;
12214;SDS011;6170;42.206;24.142;2022-10-17T15:07:17;7.68;;;2.83;;
12214;SDS011;6170;42.206;24.142;2022-10-17T15:09:47;13.63;;;3.30;;
12214;SDS011;6170;42.206;24.142;2022-10-17T15:12:17;8.02;;;3.10;;
12214;SDS011;6170;42.206;24.142;2022-10-17T15:14:45;4.97;;;2.80;;
12214;SDS011;6170;42.206;24.142;2022-10-17T15:17:13;5.32;;;3.08;;
12214;SDS011;6170;42.206;24.142;2022-10-17T15:19:42;55.35;;;6.43;;
12214;SDS011;6170;42.206;24.142;2022-10-17T15:22:09;114.25;;;10.50;;
12214;SDS011;6170;42.206;24.142;2022-10-17T15:24:36;37.17;;;6.28;;
12214;SDS011;6170;42.206;24.142;2022-10-17T15:27:05;13.60;;;3.45;;
12214;SDS011;6170;42.206;24.142;2022-10-17T15:29:32;16.20;;;3.47;;
12214;SDS011;6170;42.206;24.142;2022-10-17T15:31:59;11.57;;;3.63;;
12214;SDS011;6170;42.206;24.142;2022-10-17T15:34:26;7.47;;;3.63;;
12214;SDS011;6170;42.206;24.142;2022-10-17T15:36:53;11.80;;;3.63;;